Terminal Aerodrome Forecast
Issued by NWS Hastings, NE

Home | Current Version | Previous Version | Text Only | Print | Product List | Glossary On
Versions: 1 2 3 4 5 6 7 8 9 10 11 12 13 14 15 16 17 18 19 20 21 22 23 24 25 26 27 28 29 30 31 32 33 34
000
FTUS43 KGID 252320
TAFGRI
TAF
KGRI 252320Z 2600/2624 03008KT P6SM OVC008
     FM260500 05005KT 4SM BR OVC003
     FM261000 VRB03KT 1/2SM FG OVC003
     FM261500 00000KT 1 1/2SM BR OVC003
     FM261700 02004KT P6SM OVC010
     FM262200 03006KT P6SM BKN020=

USA.gov is the U.S. government's official web portal to all federal, state and local government web resources and services.